| time (UTC) | temp F | wind direction | speed MPH | gust MPH | rain 1hr in | rain 24hr in | rain mn in | humidity % | barometer mb |
| 20260510034552 | 62 | 0 | 0.0 | 1.0 | 0.00 | 0.00 | 0.00 | 78 | 1012.8 |
| 20260510033124 | 62 | 0 | 0.0 | 2.0 | 0.00 | 0.00 | 0.00 | 77 | 1012.5 |
| 20260510031555 | 63 | 0 | 0.0 | 1.0 | 0.00 | 0.00 | 0.00 | 75 | 1012.4 |
| 20260510030056 | 64 | 0 | 0.0 | 1.0 | 0.00 | 0.00 | 0.00 | 74 | 1012.2 |
| 20260510024555 | 65 | 202 | 0.0 | 2.0 | 0.00 | 0.00 | 0.00 | 72 | 1012.1 |
| 20260510023051 | 66 | 169 | 0.0 | 2.0 | 0.00 | 0.00 | 0.00 | 70 | 1012.0 |
| 20260510021553 | 68 | 176 | 0.0 | 2.0 | 0.00 | 0.00 | 0.00 | 68 | 1011.9 |
| 20260510020058 | 69 | 235 | 1.0 | 4.0 | 0.00 | 0.00 | 0.00 | 65 | 1011.8 |
| 20260510014552 | 70 | 254 | 1.0 | 7.0 | 0.00 | 0.00 | 0.00 | 63 | 1011.8 |
| 20260510013055 | 72 | 224 | 1.0 | 6.0 | 0.00 | 0.00 | 0.00 | 60 | 1011.7 |
| 20260510011555 | 74 | 255 | 1.0 | 8.0 | 0.00 | 0.00 | 0.00 | 57 | 1011.6 |
| 20260510010050 | 74 | 277 | 3.0 | 6.0 | 0.00 | 0.00 | 0.00 | 54 | 1011.7 |
| 20260510004554 | 76 | 262 | 4.0 | 7.0 | 0.00 | 0.00 | 0.00 | 50 | 1011.6 |
| 20260510003101 | 78 | 150 | 1.0 | 6.0 | 0.00 | 0.00 | 0.00 | 49 | 1011.6 |
| 20260510001554 | 78 | 214 | 2.0 | 6.0 | 0.00 | 0.00 | 0.00 | 48 | 1011.5 |
| 20260510000053 | 79 | 220 | 2.0 | 6.0 | 0.00 | 0.00 | 0.00 | 45 | 1011.3 |
| 20260509234554 | 79 | 248 | 2.0 | 6.0 | 0.00 | 0.00 | 0.00 | 46 | 1011.3 |
| 20260509233053 | 78 | 251 | 2.0 | 7.0 | 0.00 | 0.00 | 0.00 | 48 | 1011.4 |
| 20260509231556 | 79 | 194 | 2.0 | 6.0 | 0.00 | 0.00 | 0.00 | 47 | 1011.6 |
| 20260509230052 | 79 | 247 | 0.0 | 5.0 | 0.00 | 0.00 | 0.00 | 47 | 1011.5 |
| 20260509224559 | 79 | 239 | 1.0 | 5.0 | 0.00 | 0.00 | 0.00 | 47 | 1011.7 |
| 20260509223054 | 78 | 182 | 2.0 | 7.0 | 0.00 | 0.00 | 0.00 | 49 | 1011.9 |
| 20260509221552 | 78 | 239 | 2.0 | 8.0 | 0.00 | 0.00 | 0.00 | 48 | 1012.0 |
| 20260509220051 | 79 | 222 | 3.0 | 7.0 | 0.00 | 0.00 | 0.00 | 47 | 1012.0 |
| 20260509214551 | 80 | 265 | 4.0 | 9.0 | 0.00 | 0.00 | 0.00 | 46 | 1012.0 |
| 20260509213048 | 81 | 163 | 2.0 | 6.0 | 0.00 | 0.00 | 0.00 | 45 | 1012.1 |
| 20260509211603 | 81 | 262 | 2.0 | 8.0 | 0.00 | 0.00 | 0.00 | 45 | 1012.2 |
| 20260509210100 | 81 | 279 | 4.0 | 6.0 | 0.00 | 0.00 | 0.00 | 47 | 1012.3 |
| 20260509204608 | 81 | 181 | 3.0 | 9.0 | 0.00 | 0.00 | 0.00 | 47 | 1012.3 |
| 20260509203120 | 82 | 172 | 3.0 | 9.0 | 0.00 | 0.00 | 0.00 | 46 | 1012.3 |
| 20260509201602 | 83 | 264 | 3.0 | 11.0 | 0.00 | 0.00 | 0.00 | 46 | 1012.4 |
| 20260509200058 | 84 | 227 | 4.0 | 11.0 | 0.00 | 0.00 | 0.00 | 46 | 1012.3 |
| 20260509194557 | 84 | 298 | 2.0 | 8.0 | 0.00 | 0.00 | 0.00 | 42 | 1012.4 |
| 20260509193100 | 81 | 255 | 1.0 | 7.0 | 0.00 | 0.00 | 0.00 | 44 | 1012.5 |
| 20260509191552 | 81 | 236 | 3.0 | 7.0 | 0.00 | 0.00 | 0.00 | 41 | 1012.6 |
| 20260509190057 | 80 | 243 | 1.0 | 4.0 | 0.00 | 0.00 | 0.00 | 48 | 1012.8 |
| 20260509184556 | 79 | 309 | 1.0 | 8.0 | 0.00 | 0.00 | 0.00 | 49 | 1013.0 |
| 20260509183053 | 77 | 205 | 2.0 | 7.0 | 0.00 | 0.00 | 0.00 | 52 | 1013.2 |
| 20260509181610 | 76 | 153 | 2.0 | 4.0 | 0.00 | 0.00 | 0.00 | 56 | 1013.4 |
| 20260509180117 | 73 | 0 | 1.0 | 4.0 | 0.00 | 0.00 | 0.00 | 61 | 1013.4 |
| 20260509174608 | 73 | 309 | 1.0 | 5.0 | 0.00 | 0.00 | 0.00 | 61 | 1013.5 |
| 20260509173108 | 71 | 108 | 1.0 | 3.0 | 0.00 | 0.00 | 0.00 | 63 | 1013.6 |
| 20260509171559 | 71 | 28 | 1.0 | 3.0 | 0.00 | 0.00 | 0.00 | 64 | 1013.5 |
| 20260509170053 | 70 | 191 | 1.0 | 4.0 | 0.00 | 0.00 | 0.00 | 67 | 1013.4 |
| 20260509164553 | 68 | 243 | 0.0 | 2.0 | 0.00 | 0.00 | 0.00 | 70 | 1013.5 |
| 20260509163108 | 66 | 310 | 0.0 | 3.0 | 0.00 | 0.00 | 0.00 | 75 | 1013.6 |
| 20260509161602 | 63 | 180 | 1.0 | 3.0 | 0.00 | 0.00 | 0.00 | 80 | 1013.7 |
| 20260509160054 | 61 | 44 | 0.0 | 5.0 | 0.00 | 0.00 | 0.00 | 85 | 1013.9 |
| 20260509154557 | 60 | 41 | 1.0 | 2.0 | 0.00 | 0.00 | 0.00 | 85 | 1014.0 |
| 20260509153111 | 59 | 294 | 1.0 | 2.0 | 0.00 | 0.00 | 0.00 | 85 | 1014.0 |
| 20260509151607 | 59 | 0 | 1.0 | 3.0 | 0.00 | 0.00 | 0.00 | 87 | 1014.0 |
| 20260509150053 | 58 | 225 | 1.0 | 1.0 | 0.00 | 0.00 | 0.00 | 88 | 1014.1 |
| 20260509144556 | 58 | 214 | 0.0 | 3.0 | 0.00 | 0.00 | 0.00 | 89 | 1014.0 |
| 20260509143106 | 58 | 199 | 0.0 | 2.0 | 0.00 | 0.00 | 0.00 | 89 | 1013.9 |
| 20260509141558 | 58 | 32 | 0.0 | 3.0 | 0.00 | 0.00 | 0.00 | 90 | 1013.8 |
| 20260509140057 | 58 | 0 | 0.0 | 1.0 | 0.00 | 0.00 | 0.00 | 90 | 1013.7 |
| 20260509134558 | 58 | 26 | 0.0 | 2.0 | 0.00 | 0.00 | 0.00 | 90 | 1013.8 |
| 20260509133107 | 58 | 14 | 0.0 | 1.0 | 0.00 | 0.00 | 0.00 | 91 | 1013.7 |
| 20260509131553 | 58 | 26 | 0.0 | 1.0 | 0.00 | 0.00 | 0.00 | 91 | 1013.6 |
| 20260509130052 | 58 | 0 | 0.0 | 2.0 | 0.00 | 0.00 | 0.00 | 91 | 1013.5 |
| 20260509124551 | 58 | 0 | 0.0 | 1.0 | 0.00 | 0.00 | 0.00 | 91 | 1013.5 |
| 20260509123055 | 58 | 34 | 0.0 | 1.0 | 0.00 | 0.00 | 0.00 | 91 | 1013.3 |
| 20260509121554 | 57 | 51 | 0.0 | 2.0 | 0.00 | 0.00 | 0.00 | 91 | 1013.2 |
| 20260509120055 | 57 | 0 | 0.0 | 1.0 | 0.00 | 0.00 | 0.00 | 90 | 1013.2 |
| 20260509114600 | 58 | 0 | 0.0 | 1.0 | 0.00 | 0.00 | 0.00 | 90 | 1012.9 |
| 20260509113050 | 58 | 0 | 0.0 | 2.0 | 0.00 | 0.00 | 0.00 | 90 | 1012.9 |
| 20260509111559 | 58 | 205 | 0.0 | 2.0 | 0.00 | 0.00 | 0.00 | 90 | 1012.9 |
| 20260509110057 | 58 | 104 | 0.0 | 2.0 | 0.00 | 0.00 | 0.00 | 90 | 1013.0 |
| 20260509104608 | 58 | 51 | 0.0 | 2.0 | 0.00 | 0.00 | 0.00 | 90 | 1013.1 |
| 20260509103111 | 58 | 0 | 0.0 | 1.0 | 0.00 | 0.00 | 0.00 | 90 | 1013.2 |
| 20260509101600 | 58 | 0 | 0.0 | 3.0 | 0.00 | 0.00 | 0.00 | 90 | 1013.3 |
| 20260509100058 | 58 | 224 | 0.0 | 1.0 | 0.00 | 0.00 | 0.00 | 90 | 1013.3 |
| 20260509094555 | 58 | 0 | 0.0 | 1.0 | 0.00 | 0.00 | 0.00 | 90 | 1013.3 |
| 20260509093103 | 58 | 229 | 0.0 | 1.0 | 0.00 | 0.00 | 0.00 | 89 | 1013.4 |
| 20260509091559 | 58 | 99 | 0.0 | 1.0 | 0.00 | 0.00 | 0.00 | 89 | 1013.5 |
| 20260509090058 | 58 | 0 | 0.0 | 1.0 | 0.00 | 0.00 | 0.00 | 89 | 1013.6 |
| 20260509084553 | 58 | 59 | 0.0 | 1.0 | 0.00 | 0.00 | 0.00 | 89 | 1013.7 |
| 20260509083054 | 59 | 0 | 1.0 | 2.0 | 0.00 | 0.00 | 0.00 | 89 | 1013.7 |
| 20260509081556 | 59 | 0 | 0.0 | 2.0 | 0.00 | 0.00 | 0.00 | 90 | 1013.9 |
| 20260509080055 | 58 | 0 | 0.0 | 1.0 | 0.00 | 0.00 | 0.00 | 90 | 1013.8 |
| 20260509074558 | 58 | 0 | 0.0 | 0.0 | 0.00 | 0.00 | 0.00 | 90 | 1013.9 |
| 20260509073058 | 58 | 0 | 0.0 | 1.0 | 0.00 | 0.00 | 0.00 | 90 | 1013.9 |
| 20260509071552 | 57 | 0 | 0.0 | 1.0 | 0.00 | 0.00 | 0.00 | 90 | 1014.2 |
| 20260509070104 | 57 | 0 | 0.0 | 0.0 | 0.00 | 0.00 | 0.00 | 90 | 1014.4 |
| 20260509064552 | 56 | 0 | 0.0 | 0.0 | 0.00 | 0.00 | 0.00 | 89 | 1014.4 |
| 20260509063110 | 56 | 0 | 0.0 | 0.0 | 0.00 | 0.00 | 0.00 | 88 | 1014.4 |
| 20260509061616 | 56 | 0 | 0.0 | 0.0 | 0.00 | 0.00 | 0.00 | 88 | 1014.1 |
| 20260509060112 | 56 | 0 | 0.0 | 0.0 | 0.00 | 0.00 | 0.00 | 87 | 1014.3 |
| 20260509054558 | 57 | 0 | 0.0 | 0.0 | 0.00 | 0.00 | 0.00 | 87 | 1014.4 |
| 20260509053057 | 57 | 0 | 0.0 | 0.0 | 0.00 | 0.00 | 0.00 | 86 | 1014.4 |
| 20260509051559 | 58 | 0 | 0.0 | 0.0 | 0.00 | 0.00 | 0.00 | 86 | 1014.4 |
| 20260509050056 | 58 | 0 | 0.0 | 0.0 | 0.00 | 0.00 | 0.00 | 85 | 1014.4 |
| 20260509044552 | 59 | 0 | 0.0 | 0.0 | 0.00 | 0.00 | 0.00 | 85 | 1014.4 |
| 20260509043052 | 59 | 0 | 0.0 | 1.0 | 0.00 | 0.00 | 0.00 | 84 | 1014.4 |
| 20260509041558 | 60 | 0 | 0.0 | 1.0 | 0.00 | 0.00 | 0.00 | 83 | 1014.5 |
| 20260509040054 | 61 | 0 | 0.0 | 1.0 | 0.00 | 0.00 | 0.00 | 82 | 1014.4 |